METAR Data
IDs: Format: Raw Decoded Include TAF

Data at: 1907 UTC 25 Oct 2021

LEXJ 251900Z 22005KT 9999 FEW024 15/12 Q1024